Currently 54°F in Murrieta, California, USA
54°F
54°F / 33°F
4 mph N
0.00"
Wednesday, February 21, 2018 2:59 PM PST

Murrieta, California Weather Summary
Last 36 Hours

Temperature Winds Hourly Humidity Dewpoint
Time Report Norm Report Norm Max Gusts Precip. Rpt. Norm Rpt. Norm Pressure
1Wed 02:59 PM  53.9°F  65°F  4 mph N  6 mph  12 mph  0.00"  54%  53%  37°F  47°F  30.12"
Wed 02:00 PM  52.3°F  65°F  2 mph W  5 mph  10 mph  0.00"  58%  51%  37°F  46°F  30.12"
2Wed 01:14 PM  54.2°F  65°F  calm  5 mph  10 mph  ----  50%  52%  35°F  47°F  30.12"
Wed 01:00 PM  53.7°F  65°F  4 mph S  5 mph  9 mph  0.00"  51%  52%  35°F  47°F  30.12"
Wed 12:00 PM  50.9°F  64°F  calm  5 mph  5 mph  0.00"  54%  55%  34°F  47°F  30.16"
Wed 11:00 AM  51.8°F  62°F  calm  4 mph  6 mph  0.00"  51%  61%  34°F  47°F  30.16"
Wed 10:00 AM  49.2°F  57°F  calm  3 mph  5 mph  0.00"  48%  70%  30°F  47°F  30.17"
Wed 09:00 AM  45.6°F  53°F  calm  2 mph  4 mph  0.00"  52%  81%  28°F  47°F  30.16"
Wed 08:00 AM  41.6°F  48°F  calm  1 mph  1 mph  0.00"  61%  88%  28°F  44°F  30.16"
Wed 07:00 AM  36.9°F  45°F  calm  1 mph  2 mph  0.00"  69%  91%  27°F  42°F  30.14"
Wed 06:00 AM  36.5°F  44°F  calm  1 mph  5 mph  0.00"  68%  91%  27°F  42°F  30.14"
Wed 05:00 AM  35.5°F  45°F  calm  1 mph  none  0.00"  71%  90%  27°F  42°F  30.13"
Wed 04:00 AM  35.9°F  45°F  calm  1 mph  6 mph  0.00"  69%  89%  26°F  42°F  30.13"
Wed 03:00 AM  35.0°F  46°F  calm  1 mph  9 mph  0.00"  68%  88%  25°F  43°F  30.12"
Wed 02:00 AM  33.7°F  47°F  6 mph SW  1 mph  9 mph  0.00"  69%  87%  24°F  43°F  30.13"
3Wed 01:53 AM  33.1°F  47°F  5 mph SW  1 mph  9 mph  ----  70%  87%  24°F  43°F  30.13"
Wed 01:00 AM  34.2°F  47°F  calm  1 mph  4 mph  0.00"  68%  86%  24°F  43°F  30.14"
Wed 12:00 AM  35.4°F  48°F  calm  1 mph  none  0.00"  66%  86%  25°F  44°F  30.16"
Tue 11:00 PM  37.1°F  49°F  calm  2 mph  5 mph  0.00"  63%  85%  25°F  45°F  30.18"
Tue 10:00 PM  39.6°F  50°F  calm  2 mph  9 mph  0.00"  56%  83%  25°F  45°F  30.18"
Tue 09:00 PM  40.5°F  51°F  4 mph SW  2 mph  10 mph  0.00"  55%  80%  25°F  45°F  30.17"
Tue 08:00 PM  43.0°F  53°F  2 mph SW  3 mph  13 mph  0.00"  46%  78%  23°F  46°F  30.15"
Tue 07:00 PM  46.7°F  55°F  calm  4 mph  16 mph  0.00"  41%  75%  23°F  46°F  30.13"
Tue 06:00 PM  49.1°F  57°F  5 mph W  4 mph  20 mph  0.00"  37%  70%  23°F  47°F  30.12"
Tue 05:00 PM  51.5°F  60°F  1 mph NW  5 mph  20 mph  0.00"  33%  64%  22°F  47°F  30.10"
Tue 04:00 PM  55.8°F  63°F  1 mph N  6 mph  10 mph  0.00"  31%  57%  24°F  47°F  30.08"
Tue 03:00 PM  57.9°F  65°F  2 mph SE  6 mph  10 mph  0.00"  18%  52%  12°F  47°F  30.09"
Tue 02:00 PM  58.0°F  66°F  3 mph SW  6 mph  10 mph  0.00"  19%  51%  14°F  46°F  30.09"
Tue 01:00 PM  58.0°F  66°F  calm  5 mph  9 mph  0.00"  21%  51%  16°F  47°F  30.11"
Tue 12:00 PM  55.9°F  64°F  1 mph N  5 mph  8 mph  0.00"  23%  54%  17°F  47°F  30.14"
Tue 11:00 AM  53.3°F  62°F  calm  4 mph  9 mph  0.00"  29%  60%  21°F  47°F  30.16"
Tue 10:00 AM  50.2°F  58°F  calm  3 mph  5 mph  0.00"  36%  69%  23°F  47°F  30.17"
Tue 09:00 AM  45.3°F  53°F  calm  2 mph  4 mph  0.00"  46%  80%  25°F  47°F  30.18"
Tue 08:00 AM  34.9°F  48°F  calm  1 mph  7 mph  0.00"  68%  88%  25°F  44°F  30.18"
Tue 07:00 AM  28.7°F  44°F  calm  1 mph  4 mph  0.00"  77%  90%  22°F  42°F  30.14"
Tue 06:00 AM  28.5°F  44°F  calm  1 mph  none  0.00"  81%  90%  23°F  41°F  30.12"
Tue 05:00 AM  29.6°F  45°F  calm  1 mph  none  0.00"  79%  90%  24°F  42°F  30.09"
Tue 04:00 AM  30.5°F  45°F  calm  1 mph  6 mph  0.00"  73%  89%  23°F  42°F  30.06"
Tue 03:00 AM  31.1°F  46°F  calm  1 mph  7 mph  0.00"  65%  88%  20°F  42°F  30.06"

  1. Current weather data. No green row appears if the current weather data is also the high or low for the current day.
  2. High temperature for the current day.
  3. Low temperature for the current day.

The Murrieta weather pages are a service of WeatherCurrents. Murrieta, California is located in the Temecula Valley, in southwestern Riverside County, at the junctions of the Interstate 15 and 215 highways.
Copyright ©Wed Feb 21 15:00:14 PST 2018  WeatherCurrents. All rights reserved. - Submit questions and comments - Privacy Policy

This page automatically refreshes every 10 minutes.